Time;durP1;ratioP1;P1;durP2;ratioP2;P2;SDS_P1;SDS_P2;PMS_P1;PMS_P2;Temp;Humidity;BMP_temperature;BMP_pressure;BME280_temperature;BME280_humidity;BME280_pressure;Samples;Min_cycle;Max_cycle;Signal;HPM_P1;HPM_P2
2022/07/06 00:00:05;;;;;;;8.30;1.98;;;15.70;89.70;;;;;;5142919;27;45346;-67
2022/07/06 00:02:32;;;;;;;10.52;1.58;;;15.70;88.80;;;;;;5132563;27;45459;-66
2022/07/06 00:04:58;;;;;;;7.40;1.42;;;15.70;90.00;;;;;;5136919;27;45373;-66
2022/07/06 00:07:25;;;;;;;11.48;1.77;;;15.70;90.00;;;;;;5136508;27;45204;-66
2022/07/06 00:09:52;;;;;;;12.98;2.17;;;15.70;90.00;;;;;;5141071;27;45327;-66
2022/07/06 00:12:19;;;;;;;11.07;1.83;;;15.60;90.10;;;;;;5139252;27;45538;-66
2022/07/06 00:14:46;;;;;;;19.20;1.88;;;15.60;89.90;;;;;;5138793;27;46577;-66
2022/07/06 00:17:14;;;;;;;8.95;1.52;;;15.60;90.10;;;;;;5141157;27;45674;-66
2022/07/06 00:19:40;;;;;;;14.32;1.75;;;15.60;89.50;;;;;;5138451;27;45372;-66
2022/07/06 00:22:07;;;;;;;10.00;1.77;;;15.60;89.80;;;;;;5136101;27;45547;-67
2022/07/06 00:24:34;;;;;;;13.43;1.63;;;15.50;90.00;;;;;;5136973;27;47788;-65
2022/07/06 00:27:01;;;;;;;5.45;1.80;;;15.50;90.30;;;;;;5143994;27;45704;-66
2022/07/06 00:29:28;;;;;;;9.13;1.75;;;15.40;90.10;;;;;;5139232;27;45473;-66
2022/07/06 00:31:55;;;;;;;12.20;1.92;;;15.50;90.30;;;;;;5143577;27;45472;-66
2022/07/06 00:34:23;;;;;;;10.05;1.70;;;15.50;90.00;;;;;;5136219;27;47619;-66
2022/07/06 00:36:50;;;;;;;7.47;1.60;;;15.50;89.60;;;;;;5142856;27;45524;-66
2022/07/06 00:39:18;;;;;;;11.02;2.10;;;15.50;90.10;;;;;;5146590;27;45416;-66
2022/07/06 00:41:45;;;;;;;6.30;1.60;;;15.50;89.70;;;;;;5139625;27;45412;-67
2022/07/06 00:44:12;;;;;;;5.82;1.42;;;15.50;90.20;;;;;;5137119;27;48104;-66
2022/07/06 00:46:38;;;;;;;10.18;1.75;;;15.50;90.60;;;;;;5147211;27;45251;-66
2022/07/06 00:50:13;;;;;;;18.55;2.00;;;15.40;90.40;;;;;;5145558;27;45427;-66
2022/07/06 00:51:54;;;;;;;14.43;1.90;;;15.30;90.20;;;;;;5141556;27;45612;-66
2022/07/06 00:54:21;;;;;;;10.50;1.95;;;15.20;90.80;;;;;;5146194;27;48008;-66
2022/07/06 00:56:48;;;;;;;6.88;1.67;;;15.20;90.80;;;;;;5145647;27;45312;-66
2022/07/06 00:59:15;;;;;;;10.68;1.45;;;15.10;90.50;;;;;;5141658;27;45290;-67
2022/07/06 01:01:41;;;;;;;11.50;1.77;;;15.10;90.50;;;;;;5142257;27;45407;-66
2022/07/06 01:04:08;;;;;;;7.47;2.10;;;15.00;90.50;;;;;;5138864;27;47998;-66
2022/07/06 01:06:35;;;;;;;10.75;1.70;;;15.00;90.90;;;;;;5138871;27;45283;-66
2022/07/06 01:09:05;;;;;;;5.85;1.67;;;15.00;91.00;;;;;;5135885;27;45399;-67
2022/07/06 01:11:32;;;;;;;7.32;1.83;;;15.00;90.70;;;;;;5137738;27;45410;-66
2022/07/06 01:14:01;;;;;;;7.40;2.10;;;14.90;90.80;;;;;;5144030;27;47490;-66
2022/07/06 01:16:28;;;;;;;6.00;1.73;;;14.90;91.20;;;;;;5141048;27;45304;-66
2022/07/06 01:18:55;;;;;;;5.95;1.73;;;15.00;91.00;;;;;;5146009;27;45435;-66
2022/07/06 01:21:23;;;;;;;3.25;1.30;;;15.00;90.90;;;;;;5142983;27;45427;-66
2022/07/06 01:23:50;;;;;;;6.82;1.80;;;15.10;90.60;;;;;;5140328;27;45412;-66
2022/07/06 01:26:19;;;;;;;3.75;1.50;;;15.10;91.10;;;;;;5141555;27;45297;-67
2022/07/06 01:28:47;;;;;;;5.38;1.63;;;15.20;90.70;;;;;;5146202;27;45439;-67
2022/07/06 01:31:19;;;;;;;3.08;1.67;;;15.10;91.10;;;;;;5135380;27;45408;-66
2022/07/06 01:33:46;;;;;;;3.80;1.60;;;15.00;90.70;;;;;;5138256;27;47623;-66
2022/07/06 01:36:13;;;;;;;3.92;1.35;;;15.00;90.80;;;;;;5139219;27;45372;-67
2022/07/06 01:38:48;;;;;;;6.18;1.50;;;15.00;91.20;;;;;;5138682;27;45341;-66
2022/07/06 01:41:16;;;;;;;5.18;1.48;;;14.90;91.10;;;;;;5137984;27;45398;-66
2022/07/06 01:43:42;;;;;;;2.97;1.65;;;15.00;90.90;;;;;;5140944;27;47171;-67
2022/07/06 01:46:09;;;;;;;4.35;1.88;;;15.00;90.90;;;;;;5135918;27;46070;-66
2022/07/06 01:48:36;;;;;;;4.00;1.63;;;15.00;91.10;;;;;;5134080;27;45465;-66
2022/07/06 01:51:04;;;;;;;8.23;1.65;;;14.90;91.00;;;;;;5139502;27;45477;-66
2022/07/06 01:53:31;;;;;;;4.22;1.52;;;14.90;91.10;;;;;;5145214;27;45337;-66
2022/07/06 01:55:59;;;;;;;7.03;2.00;;;14.90;91.00;;;;;;5133550;27;45637;-67
2022/07/06 01:58:26;;;;;;;6.13;1.90;;;14.80;91.10;;;;;;5132215;27;45313;-66
2022/07/06 02:00:53;;;;;;;4.07;1.50;;;14.80;91.20;;;;;;5143698;27;45552;-66
2022/07/06 02:03:20;;;;;;;2.90;1.85;;;14.80;91.20;;;;;;5142178;27;46978;-66
2022/07/06 02:05:46;;;;;;;4.20;1.60;;;14.80;91.40;;;;;;5131391;27;45385;-67
2022/07/06 02:08:13;;;;;;;4.55;1.60;;;14.60;91.30;;;;;;5137624;27;45391;-67
2022/07/06 02:10:40;;;;;;;4.07;1.50;;;14.60;92.10;;;;;;5142274;27;45700;-66
2022/07/06 02:13:08;;;;;;;4.93;1.75;;;14.60;91.60;;;;;;5135446;27;45460;-66
2022/07/06 02:15:35;;;;;;;4.07;1.45;;;14.50;91.80;;;;;;5140662;27;45503;-66
2022/07/06 02:18:02;;;;;;;5.57;1.58;;;14.60;92.20;;;;;;5143477;27;45539;-66
2022/07/06 02:20:28;;;;;;;3.65;1.60;;;14.60;92.20;;;;;;5133784;27;45604;-66
2022/07/06 02:22:55;;;;;;;5.45;1.65;;;14.60;92.20;;;;;;5136652;27;45484;-66
2022/07/06 02:25:22;;;;;;;3.72;1.65;;;14.50;92.10;;;;;;5138855;27;45654;-66
2022/07/06 02:27:49;;;;;;;7.75;1.75;;;14.40;92.10;;;;;;5144360;27;45453;-66
2022/07/06 02:30:17;;;;;;;8.07;1.80;;;14.40;92.10;;;;;;5138217;27;45322;-66
2022/07/06 02:32:44;;;;;;;6.07;1.65;;;14.20;92.30;;;;;;5134341;27;46715;-65
2022/07/06 02:35:11;;;;;;;3.70;1.65;;;14.30;92.90;;;;;;5139809;27;45500;-66
2022/07/06 02:37:38;;;;;;;3.85;1.55;;;14.50;92.80;;;;;;5140409;27;45427;-66
2022/07/06 02:40:06;;;;;;;3.38;1.55;;;14.60;92.20;;;;;;5136090;27;45287;-66
2022/07/06 02:42:33;;;;;;;4.82;1.60;;;14.60;92.50;;;;;;5137830;27;47268;-66
2022/07/06 02:44:59;;;;;;;5.85;1.80;;;14.60;91.90;;;;;;5137768;27;45473;-66
2022/07/06 02:47:28;;;;;;;5.43;1.73;;;14.50;92.00;;;;;;5133937;27;45437;-66
2022/07/06 02:49:55;;;;;;;3.30;1.50;;;14.50;92.20;;;;;;5141109;27;45347;-66
2022/07/06 02:52:21;;;;;;;2.55;1.23;;;14.50;92.20;;;;;;5143777;27;47117;-66
2022/07/06 02:54:49;;;;;;;2.03;1.42;;;14.50;92.30;;;;;;5144595;27;45327;-66
2022/07/06 02:57:16;;;;;;;11.15;2.00;;;14.50;92.20;;;;;;5133189;27;45360;-67
2022/07/06 02:59:43;;;;;;;6.03;1.95;;;14.50;92.40;;;;;;5138574;27;45503;-67
2022/07/06 03:02:10;;;;;;;5.97;1.73;;;14.50;92.60;;;;;;5144479;27;45465;-66
2022/07/06 03:04:39;;;;;;;4.35;1.70;;;14.50;92.40;;;;;;5139379;27;45225;-66
2022/07/06 03:07:05;;;;;;;7.45;2.00;;;14.40;92.70;;;;;;5140032;27;45404;-66
2022/07/06 03:09:32;;;;;;;4.03;1.85;;;14.30;92.90;;;;;;5143886;27;45397;-66
2022/07/06 03:11:59;;;;;;;6.20;2.05;;;14.20;92.80;;;;;;5139555;27;47357;-66
2022/07/06 03:14:26;;;;;;;3.17;1.80;;;14.10;93.30;;;;;;5141058;27;45543;-66
2022/07/06 03:16:53;;;;;;;4.60;1.70;;;14.20;93.10;;;;;;5144514;27;45256;-66
2022/07/06 03:19:21;;;;;;;7.28;2.20;;;14.10;93.00;;;;;;5132938;27;45519;-66
2022/07/06 03:21:49;;;;;;;5.47;1.77;;;14.00;93.50;;;;;;5138818;27;47512;-66
2022/07/06 03:24:16;;;;;;;5.03;1.70;;;14.00;93.80;;;;;;5145965;27;45407;-66
2022/07/06 03:26:43;;;;;;;4.28;2.13;;;14.00;93.80;;;;;;5142262;27;45320;-67
2022/07/06 03:29:09;;;;;;;6.32;2.03;;;14.00;94.00;;;;;;5142390;27;45350;-66
2022/07/06 03:31:36;;;;;;;5.10;1.98;;;13.90;93.70;;;;;;5133194;27;46574;-66
2022/07/06 03:34:03;;;;;;;5.30;1.77;;;13.80;94.20;;;;;;5133950;27;46253;-66
2022/07/06 03:36:30;;;;;;;3.13;1.85;;;13.80;94.20;;;;;;5141574;27;45387;-66
2022/07/06 03:38:58;;;;;;;5.13;1.65;;;13.80;94.70;;;;;;5139812;27;45206;-66
2022/07/06 03:41:25;;;;;;;3.70;2.15;;;13.90;94.50;;;;;;5140748;27;45304;-66
2022/07/06 03:43:51;;;;;;;3.90;1.88;;;14.00;94.20;;;;;;5132719;27;45409;-66
2022/07/06 03:46:18;;;;;;;4.38;1.90;;;13.90;94.70;;;;;;5143708;27;45431;-66
2022/07/06 03:48:45;;;;;;;4.22;1.90;;;14.00;94.60;;;;;;5138887;27;45522;-66
2022/07/06 03:51:12;;;;;;;5.32;1.95;;;13.90;94.30;;;;;;5142196;27;47426;-65
2022/07/06 03:53:38;;;;;;;9.82;2.00;;;13.90;94.60;;;;;;5139057;27;45374;-66
2022/07/06 03:58:51;;;;;;;10.18;2.45;;;13.90;94.60;;;;;;5139637;27;45252;-66
2022/07/06 04:01:18;;;;;;;5.32;2.30;;;13.90;94.60;;;;;;5131559;27;45499;-66
2022/07/06 04:03:45;;;;;;;5.82;2.28;;;14.00;94.80;;;;;;5140421;27;45507;-66
2022/07/06 04:06:12;;;;;;;3.70;2.20;;;14.10;94.80;;;;;;5129950;27;45294;-66
2022/07/06 04:08:38;;;;;;;6.95;2.60;;;14.10;94.60;;;;;;5134160;27;45246;-66
2022/07/06 04:11:07;;;;;;;7.10;1.98;;;14.10;94.90;;;;;;5135551;27;46395;-65
2022/07/06 04:13:33;;;;;;;8.13;2.38;;;14.10;94.60;;;;;;5142717;27;45316;-66
2022/07/06 04:16:00;;;;;;;4.75;1.92;;;14.10;94.90;;;;;;5139913;27;45343;-66
2022/07/06 04:18:27;;;;;;;8.52;2.30;;;14.20;95.10;;;;;;5135366;27;45316;-66
2022/07/06 04:20:54;;;;;;;5.82;2.33;;;14.20;94.70;;;;;;5136585;27;45351;-66
2022/07/06 04:23:21;;;;;;;5.88;2.35;;;14.20;94.40;;;;;;5143105;27;45297;-66
2022/07/06 04:25:48;;;;;;;4.65;2.60;;;14.20;94.80;;;;;;5137342;27;45491;-66
2022/07/06 04:28:16;;;;;;;7.57;2.85;;;14.20;94.80;;;;;;5147717;27;45497;-66
2022/07/06 04:30:42;;;;;;;6.57;2.28;;;14.20;94.90;;;;;;5138729;27;45356;-66
2022/07/06 04:33:09;;;;;;;6.00;2.50;;;14.20;95.10;;;;;;5143783;27;45305;-66
2022/07/06 04:35:36;;;;;;;5.30;2.53;;;14.20;95.20;;;;;;5142984;27;45304;-66
2022/07/06 04:38:04;;;;;;;6.32;2.50;;;14.30;95.00;;;;;;5147459;27;45587;-66
2022/07/06 04:40:31;;;;;;;9.23;2.88;;;14.20;95.20;;;;;;5142616;27;45545;-66
2022/07/06 04:42:58;;;;;;;4.25;2.15;;;14.20;95.60;;;;;;5140039;27;45491;-66
2022/07/06 04:45:26;;;;;;;7.63;2.50;;;14.30;95.10;;;;;;5142337;27;45626;-66
2022/07/06 04:47:53;;;;;;;5.43;2.40;;;14.30;95.20;;;;;;5138652;27;45414;-66
2022/07/06 04:50:19;;;;;;;12.15;5.05;;;14.30;95.10;;;;;;5145105;27;46442;-66
2022/07/06 04:52:46;;;;;;;5.20;2.30;;;14.40;95.10;;;;;;5144808;27;45398;-66
2022/07/06 04:55:14;;;;;;;8.70;2.40;;;14.30;95.80;;;;;;5145561;27;45217;-66
2022/07/06 04:57:41;;;;;;;7.05;2.40;;;14.40;95.50;;;;;;5138356;27;45617;-66
2022/07/06 05:00:09;;;;;;;3.75;2.72;;;14.40;95.20;;;;;;5135799;27;47442;-66
2022/07/06 05:02:37;;;;;;;5.22;2.70;;;14.50;95.50;;;;;;5143741;27;45390;-66
2022/07/06 05:05:05;;;;;;;8.15;2.67;;;14.50;95.80;;;;;;5148657;27;45355;-66
2022/07/06 05:07:33;;;;;;;5.15;2.20;;;14.50;95.10;;;;;;5145869;27;45556;-66
2022/07/06 05:10:00;;;;;;;4.80;2.40;;;14.50;95.40;;;;;;5144776;27;46293;-66
2022/07/06 05:12:27;;;;;;;4.95;2.47;;;14.50;95.20;;;;;;5140981;27;45503;-66
2022/07/06 05:14:54;;;;;;;6.38;2.50;;;14.50;95.60;;;;;;5145644;27;45220;-66
2022/07/06 05:17:20;;;;;;;5.07;2.60;;;14.50;95.00;;;;;;5140396;27;45619;-66
2022/07/06 05:19:48;;;;;;;7.57;2.67;;;14.50;95.40;;;;;;5137199;27;46626;-66
2022/07/06 05:22:15;;;;;;;8.27;2.95;;;14.50;95.10;;;;;;5142597;27;45344;-66
2022/07/06 05:24:42;;;;;;;10.27;2.83;;;14.50;95.50;;;;;;5135247;27;45316;-66
2022/07/06 05:27:09;;;;;;;7.28;2.67;;;14.50;95.30;;;;;;5139265;27;45578;-66
2022/07/06 05:29:35;;;;;;;6.50;2.22;;;14.70;95.00;;;;;;5133798;27;46307;-66
2022/07/06 05:32:02;;;;;;;6.10;2.35;;;14.70;95.20;;;;;;5136122;27;45531;-66
2022/07/06 05:34:29;;;;;;;5.13;2.20;;;14.70;94.60;;;;;;5138531;27;45327;-66
2022/07/06 05:36:57;;;;;;;4.07;2.05;;;14.70;94.90;;;;;;5142513;27;45282;-65
2022/07/06 05:39:24;;;;;;;6.57;2.22;;;14.70;95.30;;;;;;5143628;27;46596;-66
2022/07/06 05:41:51;;;;;;;5.95;2.15;;;14.80;95.10;;;;;;5136999;27;45287;-66
2022/07/06 05:44:18;;;;;;;4.28;2.22;;;14.80;94.80;;;;;;5134124;27;45378;-66
2022/07/06 05:46:44;;;;;;;7.70;2.38;;;14.80;95.10;;;;;;5135215;27;45520;-66
2022/07/06 05:51:57;;;;;;;6.25;2.47;;;14.90;94.80;;;;;;5134557;27;45395;-66
2022/07/06 05:54:24;;;;;;;7.50;2.47;;;15.00;95.40;;;;;;5136036;27;45372;-66
2022/07/06 05:56:50;;;;;;;6.57;2.55;;;15.10;95.10;;;;;;5136912;27;45478;-66
2022/07/06 05:59:17;;;;;;;3.83;1.92;;;15.70;94.20;;;;;;5138035;27;48048;-67
2022/07/06 06:01:44;;;;;;;2.25;1.50;;;16.50;92.30;;;;;;5143401;27;45510;-67
2022/07/06 06:04:11;;;;;;;4.72;2.47;;;16.80;91.30;;;;;;5138425;27;45305;-67
2022/07/06 06:06:38;;;;;;;4.10;1.90;;;17.00;90.90;;;;;;5141191;27;45271;-67
2022/07/06 06:09:06;;;;;;;7.32;1.90;;;17.10;90.60;;;;;;5142670;27;45558;-66
2022/07/06 06:11:33;;;;;;;6.18;1.80;;;17.20;90.40;;;;;;5139408;27;45412;-67
2022/07/06 06:13:59;;;;;;;2.72;1.63;;;17.20;90.40;;;;;;5133190;27;45346;-66
2022/07/06 06:16:26;;;;;;;8.25;1.73;;;17.40;90.40;;;;;;5134498;27;45269;-66
2022/07/06 06:18:53;;;;;;;4.40;1.63;;;17.50;90.10;;;;;;5137514;27;47714;-67
2022/07/06 06:21:20;;;;;;;6.30;1.92;;;17.70;90.00;;;;;;5140448;27;45378;-66
2022/07/06 06:23:47;;;;;;;4.30;1.63;;;17.60;88.60;;;;;;5142298;27;45491;-66
2022/07/06 06:26:15;;;;;;;5.53;1.52;;;17.50;88.20;;;;;;5140072;27;45240;-67
2022/07/06 06:28:42;;;;;;;5.82;1.45;;;17.50;88.20;;;;;;5140464;27;46557;-66
2022/07/06 06:31:09;;;;;;;5.32;1.63;;;17.40;86.90;;;;;;5128700;27;45391;-66
2022/07/06 06:33:36;;;;;;;4.60;1.30;;;17.60;86.50;;;;;;5133930;27;45510;-66
2022/07/06 06:36:03;;;;;;;3.08;1.35;;;17.70;86.30;;;;;;5133759;27;45460;-67
2022/07/06 06:38:30;;;;;;;5.65;1.50;;;17.90;84.60;;;;;;5133271;27;46408;-66
2022/07/06 06:40:58;;;;;;;6.82;1.33;;;17.80;85.10;;;;;;5139624;27;45394;-66
2022/07/06 06:43:26;;;;;;;3.65;1.33;;;17.80;86.70;;;;;;5140312;27;45383;-67
2022/07/06 06:45:53;;;;;;;4.25;1.35;;;17.90;86.00;;;;;;5137226;27;45318;-66
2022/07/06 06:48:20;;;;;;;3.58;1.13;;;17.90;86.30;;;;;;5146500;27;46208;-66
2022/07/06 06:50:47;;;;;;;3.15;1.40;;;18.00;85.80;;;;;;5144010;27;45728;-66
2022/07/06 06:53:14;;;;;;;4.32;1.45;;;18.10;85.20;;;;;;5136609;27;45436;-66
2022/07/06 06:55:41;;;;;;;1.88;1.00;;;18.00;85.50;;;;;;5135317;27;45398;-67
2022/07/06 06:58:08;;;;;;;2.72;1.48;;;17.90;85.80;;;;;;5125076;27;46429;-65
2022/07/06 07:00:36;;;;;;;3.60;1.50;;;18.10;85.00;;;;;;5129598;27;45396;-66
2022/07/06 07:03:03;;;;;;;6.80;1.38;;;17.50;89.10;;;;;;5138261;27;45385;-66
2022/07/06 07:05:30;;;;;;;5.85;1.60;;;17.80;87.20;;;;;;5139295;27;45512;-66
2022/07/06 07:07:58;;;;;;;5.43;1.13;;;17.80;85.90;;;;;;5124331;27;45323;-66
2022/07/06 07:10:25;;;;;;;4.82;1.20;;;17.80;86.80;;;;;;5123593;27;45290;-66
2022/07/06 07:12:53;;;;;;;4.38;1.13;;;18.00;85.80;;;;;;5125300;27;45484;-66
2022/07/06 07:15:19;;;;;;;6.30;1.10;;;18.10;85.90;;;;;;5142854;27;45650;-67
2022/07/06 07:17:47;;;;;;;2.47;1.05;;;18.20;83.20;;;;;;5139671;27;45321;-66
2022/07/06 07:20:14;;;;;;;4.25;0.90;;;18.00;86.30;;;;;;5138840;27;45571;-66
2022/07/06 07:22:41;;;;;;;6.00;0.90;;;17.90;84.50;;;;;;5142543;27;45367;-67
2022/07/06 07:25:08;;;;;;;3.28;1.13;;;18.10;86.30;;;;;;5122951;27;45260;-67
2022/07/06 07:27:35;;;;;;;2.00;0.77;;;18.40;85.60;;;;;;5124321;27;45387;-67
2022/07/06 07:30:02;;;;;;;3.45;0.95;;;18.40;84.20;;;;;;5116935;27;45460;-67
2022/07/06 07:32:29;;;;;;;2.63;0.90;;;18.40;83.10;;;;;;5131473;27;45288;-67
2022/07/06 07:34:57;;;;;;;3.15;0.80;;;18.30;84.50;;;;;;5137760;27;45429;-67
2022/07/06 07:37:24;;;;;;;2.63;1.02;;;18.40;83.00;;;;;;5123070;27;48486;-67
2022/07/06 07:39:50;;;;;;;3.35;0.90;;;18.30;82.80;;;;;;5134817;27;45388;-67
2022/07/06 07:42:17;;;;;;;1.70;0.88;;;18.30;83.20;;;;;;5137155;27;45286;-68
2022/07/06 07:44:44;;;;;;;1.98;0.50;;;18.50;84.20;;;;;;5133805;27;45398;-67
2022/07/06 07:47:11;;;;;;;2.10;0.70;;;18.60;86.40;;;;;;5136326;27;46847;-67
2022/07/06 07:49:37;;;;;;;4.22;0.60;;;18.10;81.50;;;;;;5129057;27;45272;-67
2022/07/06 07:52:06;;;;;;;3.83;0.70;;;17.30;84.30;;;;;;5136785;27;45540;-67
2022/07/06 07:54:33;;;;;;;2.70;0.77;;;17.40;86.40;;;;;;5133173;27;45714;-68
2022/07/06 07:57:00;;;;;;;2.97;0.50;;;17.90;89.80;;;;;;5129774;27;46191;-67
2022/07/06 07:59:27;;;;;;;1.58;0.65;;;16.80;85.80;;;;;;5132335;27;45354;-66
2022/07/06 08:01:54;;;;;;;2.15;0.43;;;16.50;89.10;;;;;;5136531;27;45360;-67
2022/07/06 08:04:21;;;;;;;3.97;0.82;;;16.40;89.40;;;;;;5130743;27;45449;-66
2022/07/06 08:06:48;;;;;;;2.67;0.75;;;16.20;90.00;;;;;;5131451;27;46464;-67
2022/07/06 08:09:16;;;;;;;2.33;0.60;;;16.10;90.70;;;;;;5135633;27;45574;-67
2022/07/06 08:11:43;;;;;;;1.25;0.55;;;16.50;89.90;;;;;;5127282;27;45517;-67
2022/07/06 08:14:11;;;;;;;4.88;0.60;;;16.70;90.00;;;;;;5142527;27;45531;-66
2022/07/06 08:16:38;;;;;;;5.35;0.93;;;16.70;90.10;;;;;;5133957;27;45462;-67
2022/07/06 08:19:04;;;;;;;7.30;0.90;;;16.70;88.60;;;;;;5138582;27;45449;-67
2022/07/06 08:21:31;;;;;;;3.63;0.88;;;16.70;88.30;;;;;;5134424;27;45363;-66
2022/07/06 08:24:00;;;;;;;2.75;0.77;;;16.60;90.00;;;;;;5127166;27;45362;-66
2022/07/06 08:26:29;;;;;;;5.55;0.70;;;16.60;89.30;;;;;;5132356;27;46372;-66
2022/07/06 08:28:55;;;;;;;5.15;0.60;;;16.60;87.60;;;;;;5141287;27;45305;-66
2022/07/06 08:31:22;;;;;;;3.42;0.55;;;16.60;88.80;;;;;;5136026;27;45479;-67
2022/07/06 08:33:52;;;;;;;3.63;0.88;;;16.40;89.30;;;;;;5131100;27;45324;-66
2022/07/06 08:36:18;;;;;;;2.25;1.05;;;16.20;90.90;;;;;;5124329;27;46523;-66
2022/07/06 08:38:45;;;;;;;1.00;0.57;;;16.10;90.40;;;;;;5130095;27;45726;-69
2022/07/06 08:41:14;;;;;;;3.95;0.60;;;16.00;91.20;;;;;;5127750;27;45471;-67
2022/07/06 08:43:42;;;;;;;3.92;0.82;;;16.10;90.80;;;;;;5128324;27;45419;-67
2022/07/06 08:46:09;;;;;;;3.13;0.88;;;15.90;91.10;;;;;;5126416;27;48067;-67
2022/07/06 08:48:38;;;;;;;1.38;0.50;;;16.00;91.00;;;;;;5128805;27;45479;-67
2022/07/06 08:51:06;;;;;;;1.55;0.55;;;16.20;91.20;;;;;;5126236;27;45421;-67
2022/07/06 08:53:33;;;;;;;5.13;0.70;;;16.40;90.20;;;;;;5126238;27;45394;-68
2022/07/06 08:56:00;;;;;;;3.50;0.68;;;16.20;90.20;;;;;;5128289;27;46431;-67
2022/07/06 08:58:28;;;;;;;7.13;0.80;;;16.20;90.50;;;;;;5134575;27;45434;-67
2022/07/06 09:00:57;;;;;;;5.70;0.50;;;16.40;90.00;;;;;;5132515;27;45521;-67
2022/07/06 09:03:24;;;;;;;2.72;0.75;;;16.30;89.40;;;;;;5133548;27;45425;-67
2022/07/06 09:05:53;;;;;;;2.72;0.70;;;16.30;88.90;;;;;;5143114;27;47684;-67
2022/07/06 09:08:20;;;;;;;1.15;0.70;;;16.40;88.00;;;;;;5145038;27;45322;-67
2022/07/06 09:10:47;;;;;;;5.07;0.65;;;16.30;90.30;;;;;;5137025;27;45354;-67
2022/07/06 09:13:14;;;;;;;5.38;0.68;;;16.40;90.00;;;;;;5145200;27;45290;-67
2022/07/06 09:15:41;;;;;;;2.65;0.80;;;16.80;88.10;;;;;;5143128;27;46548;-67
2022/07/06 09:18:09;;;;;;;7.65;0.93;;;16.70;86.30;;;;;;5134985;27;45299;-67
2022/07/06 09:20:35;;;;;;;4.68;0.93;;;16.60;86.60;;;;;;5139145;27;45548;-67
2022/07/06 09:23:04;;;;;;;1.17;0.50;;;16.60;86.10;;;;;;5146456;27;45376;-67
2022/07/06 09:25:31;;;;;;;2.95;0.80;;;16.90;86.50;;;;;;5138732;27;46097;-67
2022/07/06 09:27:59;;;;;;;2.30;0.40;;;17.10;84.70;;;;;;5135908;27;45338;-68
2022/07/06 09:30:28;;;;;;;2.72;0.82;;;17.20;81.20;;;;;;5142761;27;45476;-67
2022/07/06 09:32:56;;;;;;;3.60;0.60;;;17.20;81.50;;;;;;5143030;27;45390;-67
2022/07/06 09:35:26;;;;;;;5.47;0.70;;;17.10;79.30;;;;;;5144066;27;46089;-67
2022/07/06 09:38:02;;;;;;;4.20;0.60;;;17.10;77.80;;;;;;5128499;27;45457;-67
2022/07/06 09:40:29;;;;;;;3.20;0.80;;;17.00;79.60;;;;;;5124951;27;45530;-67
2022/07/06 09:43:09;;;;;;;2.38;0.60;;;17.00;79.60;;;;;;5131417;27;45941;-67
2022/07/06 09:45:36;;;;;;;5.32;0.75;;;16.90;80.70;;;;;;5129488;27;46292;-67
2022/07/06 09:48:07;;;;;;;4.70;0.60;;;17.20;79.70;;;;;;5130958;27;45801;-67
2022/07/06 09:50:41;;;;;;;4.13;0.85;;;17.20;75.90;;;;;;5128965;27;45328;-67
2022/07/06 09:53:08;;;;;;;4.22;0.63;;;17.60;76.60;;;;;;5128419;27;45401;-66
2022/07/06 09:55:35;;;;;;;1.60;0.75;;;17.70;75.10;;;;;;5141700;27;47548;-68
2022/07/06 09:58:03;;;;;;;2.08;0.68;;;17.90;75.20;;;;;;5138097;27;45572;-67
2022/07/06 10:00:30;;;;;;;2.50;0.80;;;18.20;74.50;;;;;;5141215;27;45319;-68
2022/07/06 10:02:56;;;;;;;1.80;0.65;;;18.20;73.90;;;;;;5132437;27;45417;-68
2022/07/06 10:05:29;;;;;;;2.08;0.63;;;18.30;73.70;;;;;;5141404;27;46601;-68
2022/07/06 10:07:59;;;;;;;3.20;0.77;;;18.50;72.10;;;;;;5136081;27;45399;-67
2022/07/06 10:10:27;;;;;;;3.33;1.10;;;18.30;73.50;;;;;;5126844;27;45492;-68
2022/07/06 10:12:56;;;;;;;1.83;0.63;;;18.50;74.70;;;;;;5132034;27;45606;-67
2022/07/06 10:15:24;;;;;;;0.95;0.60;;;18.60;73.30;;;;;;5134802;27;45327;-68
2022/07/06 10:17:52;;;;;;;1.73;0.52;;;18.30;66.70;;;;;;5134491;27;45343;-67
2022/07/06 10:20:19;;;;;;;3.60;0.90;;;18.10;68.00;;;;;;5130900;27;45382;-68
2022/07/06 10:22:48;;;;;;;2.70;0.80;;;18.50;68.10;;;;;;5130340;27;45528;-68
2022/07/06 10:25:17;;;;;;;4.20;0.80;;;18.50;66.50;;;;;;5136180;27;47038;-67
2022/07/06 10:27:45;;;;;;;2.72;1.08;;;18.30;66.60;;;;;;5132983;27;45525;-67
2022/07/06 10:30:13;;;;;;;2.35;0.93;;;18.30;64.10;;;;;;5132780;27;45455;-67
2022/07/06 10:32:42;;;;;;;2.05;1.00;;;18.50;64.70;;;;;;5135606;27;45329;-67
2022/07/06 10:35:10;;;;;;;6.03;0.80;;;18.70;61.50;;;;;;5127891;27;45677;-68
2022/07/06 10:37:36;;;;;;;1.02;0.60;;;18.70;63.10;;;;;;5131050;27;45576;-67
2022/07/06 10:42:51;;;;;;;4.45;0.73;;;19.00;59.90;;;;;;5129755;27;45381;-67
2022/07/06 10:45:52;;;;;;;1.67;0.70;;;18.40;59.70;;;;;;5140874;27;47330;-67
2022/07/06 10:48:20;;;;;;;4.72;0.70;;;18.30;62.10;;;;;;5131392;27;45383;-67
2022/07/06 10:50:48;;;;;;;2.85;0.60;;;18.60;61.40;;;;;;5132861;27;45347;-67
2022/07/06 10:53:16;;;;;;;2.03;0.85;;;18.70;60.70;;;;;;5133676;27;45578;-68
2022/07/06 10:55:47;;;;;;;3.13;0.82;;;19.00;60.80;;;;;;5141101;27;46065;-67
2022/07/06 10:58:15;;;;;;;1.23;0.68;;;18.60;60.90;;;;;;5135757;27;45407;-67
2022/07/06 11:00:52;;;;;;;1.70;0.70;;;18.60;61.30;;;;;;5134620;27;45531;-67
2022/07/06 11:03:39;;;;;;;2.85;0.80;;;18.80;61.50;;;;;;5130863;27;45419;-67
2022/07/06 11:06:09;;;;;;;4.18;0.90;;;18.70;62.10;;;;;;5134952;27;45423;-67
2022/07/06 11:08:56;;;;;;;2.38;0.77;;;18.80;62.10;;;;;;5132824;27;45347;-67
2022/07/06 11:11:25;;;;;;;3.17;1.00;;;18.90;61.50;;;;;;5137315;27;45311;-67
2022/07/06 11:13:56;;;;;;;0.93;0.70;;;19.00;60.80;;;;;;5135924;27;45485;-67
2022/07/06 11:16:26;;;;;;;2.50;0.77;;;18.90;60.80;;;;;;5131976;27;47101;-67
2022/07/06 11:19:06;;;;;;;3.03;0.77;;;18.90;61.70;;;;;;5139050;27;45496;-67
2022/07/06 11:21:35;;;;;;;1.10;0.68;;;18.90;62.80;;;;;;5128267;27;45436;-68
2022/07/06 11:24:04;;;;;;;0.93;0.55;;;19.00;62.30;;;;;;5127971;27;45528;-67
2022/07/06 11:26:31;;;;;;;1.65;0.70;;;19.00;62.60;;;;;;5134314;27;48151;-67
2022/07/06 11:29:01;;;;;;;2.97;0.70;;;19.00;62.20;;;;;;5130832;27;46073;-67
2022/07/06 11:31:27;;;;;;;4.15;0.73;;;19.10;61.00;;;;;;5136900;27;45349;-67
2022/07/06 11:33:54;;;;;;;2.88;0.80;;;19.50;61.40;;;;;;5132216;27;45514;-67
2022/07/06 11:36:23;;;;;;;2.30;0.75;;;19.60;61.70;;;;;;5136397;27;48057;-67
2022/07/06 11:38:51;;;;;;;3.65;0.80;;;19.70;61.30;;;;;;5124679;27;45247;-68
2022/07/06 11:41:19;;;;;;;2.13;0.60;;;19.60;61.90;;;;;;5122018;27;45403;-66
2022/07/06 11:43:50;;;;;;;5.00;1.10;;;19.50;62.40;;;;;;5131170;27;45522;-66
2022/07/06 11:46:26;;;;;;;3.30;0.77;;;19.40;62.00;;;;;;5138421;27;45471;-65
2022/07/06 11:48:54;;;;;;;1.42;0.50;;;19.20;63.50;;;;;;5138594;27;45545;-65
2022/07/06 11:51:22;;;;;;;2.63;0.80;;;19.20;63.80;;;;;;5127644;27;45365;-66
2022/07/06 11:53:52;;;;;;;1.70;0.75;;;19.20;64.80;;;;;;5131863;27;45467;-65
2022/07/06 11:56:21;;;;;;;3.42;0.57;;;19.40;64.30;;;;;;5127465;27;46398;-65
2022/07/06 11:58:50;;;;;;;4.30;0.68;;;19.30;64.30;;;;;;5135129;27;45592;-66
2022/07/06 12:01:17;;;;;;;3.03;0.90;;;19.40;64.80;;;;;;5139404;27;45259;-66
2022/07/06 12:03:47;;;;;;;5.97;0.52;;;19.40;63.60;;;;;;5141891;27;45517;-66
2022/07/06 12:06:16;;;;;;;4.90;0.75;;;19.60;64.80;;;;;;5135057;27;48062;-66
2022/07/06 12:08:45;;;;;;;1.83;0.50;;;19.90;64.10;;;;;;5118603;27;45543;-67
2022/07/06 12:11:17;;;;;;;1.88;0.70;;;19.80;62.80;;;;;;5122224;27;45425;-65
2022/07/06 12:13:43;;;;;;;1.98;0.82;;;19.70;62.10;;;;;;5126852;27;45493;-66
2022/07/06 12:16:12;;;;;;;8.02;0.80;;;19.60;62.00;;;;;;5127797;27;45390;-66
2022/07/06 12:18:39;;;;;;;1.85;0.45;;;19.40;62.20;;;;;;5133386;27;45542;-66
2022/07/06 12:21:10;;;;;;;6.40;0.80;;;19.40;63.10;;;;;;5124863;27;45290;-65
2022/07/06 12:23:44;;;;;;;4.38;0.50;;;19.60;62.10;;;;;;5139216;27;45392;-66
2022/07/06 12:26:12;;;;;;;4.05;0.70;;;19.50;62.60;;;;;;5140243;27;45418;-66
2022/07/06 12:28:38;;;;;;;8.77;0.95;;;19.60;63.30;;;;;;5121855;27;45435;-66
2022/07/06 12:31:05;;;;;;;1.77;0.55;;;19.60;62.20;;;;;;5121914;27;45271;-66
2022/07/06 12:33:32;;;;;;;6.43;0.40;;;19.60;61.10;;;;;;5126881;27;45611;-66
2022/07/06 12:36:11;;;;;;;2.35;0.45;;;19.60;61.80;;;;;;5142672;27;46206;-66
2022/07/06 12:38:45;;;;;;;2.28;0.40;;;19.50;62.70;;;;;;5147623;27;45327;-66
2022/07/06 12:41:23;;;;;;;4.28;0.70;;;19.50;62.70;;;;;;5142281;27;45380;-65
2022/07/06 12:44:00;;;;;;;4.53;0.63;;;19.90;61.50;;;;;;5140965;27;45425;-66
2022/07/06 12:46:29;;;;;;;2.17;0.50;;;19.90;61.30;;;;;;5130995;27;49058;-68
2022/07/06 12:48:57;;;;;;;3.65;0.73;;;19.80;61.70;;;;;;5134992;27;45373;-67
2022/07/06 12:51:25;;;;;;;1.50;0.60;;;20.00;63.50;;;;;;5142531;27;45375;-66
2022/07/06 12:53:53;;;;;;;4.30;0.63;;;20.40;60.70;;;;;;5143097;27;45246;-65
2022/07/06 12:56:20;;;;;;;9.43;0.70;;;20.30;59.20;;;;;;5140383;27;45371;-66